Seastreak New Jersey — WDE4029 — position and weather

sailwx.info

Track history (hours):
 
Tides and Currents Weather Stations Pressure Air Temp Water Temp Dewpoint Dewpoint Depression Visibility Wind Speed Wind Dir Waves Ship Positions

Seastreak New Jersey

Owner: Seastreak llc, Atlantic Highlands, NJ. More information available from US FCC via Universal Licensing System and Coast Guard Vessel Documentation Center.

Last reported at 2017-Oct-20 02:47 UTC. Time now 2017-Oct-20 07:23 UTC.
Position N 40°25' W 073°60'.

Length 44 m.

Type: High speed craft. MMSI: 367347640.

Date/timePositionNaut miles runAvg speedWind from/ knotsBaromVisibWave heightAir tempDewpointWater temp
2017-Oct-20 02:47N 40°25' W 073°60'818.2
2017-Oct-20 02:22N 40°32' W 074°02'1028.5
2017-Oct-20 02:00N 40°42' W 074°00'3 5.7
2017-Oct-20 01:30N 40°45' W 073°58'714.8
2017-Oct-20 01:01N 40°38' W 074°03'1416.5
2017-Oct-20 00:10N 40°25' W 073°60'0 0.0
2017-Oct-19 23:52N 40°25' W 073°60'0 0.0
2017-Oct-19 23:26N 40°25' W 073°60'0 0.4
2017-Oct-19 23:00N 40°25' W 073°60'1223.1
2017-Oct-19 22:30N 40°36' W 074°03'918.5
2017-Oct-19 22:00N 40°45' W 073°58'917.2
2017-Oct-19 21:31N 40°37' W 074°03'1122.9
2017-Oct-19 21:00N 40°25' W 074°01'1020.0
2017-Oct-19 20:31N 40°35' W 074°03'714.3
2017-Oct-19 20:01N 40°42' W 074°00'0 0.9
2017-Oct-19 19:30N 40°42' W 074°00'1528.7
2017-Oct-19 18:59N 40°27' W 074°01'3 5.1
2017-Oct-19 18:30N 40°25' W 073°60'815.7
2017-Oct-19 18:00N 40°32' W 074°02'1021.1
2017-Oct-19 17:30N 40°42' W 073°59'0 1.0
2017-Oct-19 17:01N 40°43' W 073°59'1428.3
2017-Oct-19 16:30N 40°28' W 074°02'4 6.1
2017-Oct-19 15:48N 40°32' W 074°02'829.5
2017-Oct-19 15:31N 40°41' W 074°02'4 8.0
2017-Oct-19 15:00N 40°44' W 073°58'611.0
2017-Oct-19 14:31N 40°39' W 074°02'1421.3
2017-Oct-19 13:52N 40°25' W 074°02'511.8
2017-Oct-19 13:26N 40°30' W 074°02'1228.2
2017-Oct-19 13:01N 40°42' W 074°00'3 5.5
2017-Oct-19 12:30N 40°45' W 073°58'5 9.9
2017-Oct-19 12:00N 40°40' W 074°01'1530.2
2017-Oct-19 11:30N 40°25' W 074°02'2 3.2
2017-Oct-19 10:56N 40°25' W 073°60'0 0.0
2017-Oct-19 10:30N 40°25' W 073°60'0 0.0
2017-Oct-19 02:54N 40°25' W 073°60'917.8
2017-Oct-19 02:25N 40°33' W 074°02'922.6
2017-Oct-19 02:01N 40°42' W 074°00'3 5.7
2017-Oct-19 01:30N 40°45' W 073°58'918.3
2017-Oct-19 01:01N 40°36' W 074°03'12 7.5
2017-Oct-18 23:24N 40°25' W 073°60'0 0.1
2017-Oct-18 22:57N 40°25' W 073°60'1328.7
2017-Oct-18 22:30N 40°37' W 074°03'816.1
2017-Oct-18 22:00N 40°45' W 073°58'816.8
2017-Oct-18 21:30N 40°37' W 074°03'1224.0
2017-Oct-18 21:00N 40°25' W 074°00'1020.8
2017-Oct-18 20:30N 40°36' W 074°03'715.0
2017-Oct-18 20:01N 40°42' W 073°59'2 3.9
2017-Oct-18 19:31N 40°41' W 074°01'1632.5
2017-Oct-18 19:00N 40°25' W 073°60'0 0.4
2017-Oct-18 18:30N 40°25' W 073°60'815.1
2017-Oct-18 17:59N 40°32' W 074°02'1021.2
2017-Oct-18 17:30N 40°42' W 074°00'0 0.8
2017-Oct-18 17:01N 40°42' W 074°00'1326.0
2017-Oct-18 16:30N 40°28' W 074°02'4 7.9
2017-Oct-18 16:00N 40°25' W 074°00'1632.0
2017-Oct-18 15:31N 40°40' W 074°02'5 9.8
2017-Oct-18 15:00N 40°44' W 073°58'1913.1
2017-Oct-18 13:31N 40°25' W 074°02'724.3
2017-Oct-18 13:14N 40°32' W 074°02'731.7
2017-Oct-18 13:00N 40°39' W 074°03'713.0
2017-Oct-18 12:30N 40°45' W 073°58'510.2
2017-Oct-18 12:01N 40°40' W 074°01'1523.1
2017-Oct-18 11:21N 40°25' W 074°02'2 0.2
2017-Oct-18 02:54N 40°25' W 073°60'613.1
2017-Oct-18 02:25N 40°31' W 074°02'1127.3
2017-Oct-18 02:00N 40°42' W 074°00'3 5.9
2017-Oct-18 01:30N 40°45' W 073°58'714.5
2017-Oct-18 01:01N 40°38' W 074°03'1417.8
2017-Oct-18 00:14N 40°25' W 073°60'0 0.0
2017-Oct-18 00:00N 40°25' W 073°60'0 0.0
2017-Oct-17 23:30N 40°25' W 073°60'0 0.1
2017-Oct-17 22:58N 40°25' W 073°60'1327.2
2017-Oct-17 22:30N 40°37' W 074°03'816.7
2017-Oct-17 22:00N 40°45' W 073°58'715.0
2017-Oct-17 21:31N 40°38' W 074°03'1325.3
2017-Oct-17 21:00N 40°25' W 074°01'1020.7
2017-Oct-17 20:30N 40°36' W 074°03'713.6
2017-Oct-17 20:01N 40°42' W 074°00'1 1.1
2017-Oct-17 19:31N 40°42' W 074°00'1631.5
2017-Oct-17 19:00N 40°26' W 074°00'0 0.5
2017-Oct-17 18:20N 40°25' W 074°01'719.9
2017-Oct-17 17:59N 40°32' W 074°02'1021.4
2017-Oct-17 17:31N 40°42' W 074°00'0 0.3
2017-Oct-17 17:01N 40°42' W 073°60'1427.9
2017-Oct-17 16:30N 40°28' W 074°01'3 5.8
2017-Oct-17 15:58N 40°25' W 074°00'1532.1
2017-Oct-17 15:31N 40°40' W 074°03'4 8.6
2017-Oct-17 15:00N 40°43' W 073°58'713.3
2017-Oct-17 14:30N 40°37' W 074°03'5 3.9
2017-Oct-17 13:17N 40°32' W 074°02'931.3
2017-Oct-17 13:01N 40°41' W 074°01'4 8.1
2017-Oct-17 12:30N 40°45' W 073°58'612.4
2017-Oct-17 12:00N 40°40' W 074°03'1415.3
2017-Oct-17 11:04N 40°25' W 074°01'1 3.3
2017-Oct-17 10:44N 40°25' W 073°60'0 0.0
2017-Oct-17 02:55N 40°25' W 073°60'712.7
2017-Oct-17 02:20N 40°32' W 074°02'1032.2
2017-Oct-17 02:00N 40°42' W 074°00'3 5.9
2017-Oct-17 01:31N 40°45' W 073°58'815.9
2017-Oct-17 01:00N 40°37' W 074°03'1313.2
2017-Oct-17 00:01N 40°25' W 073°60'0 0.0
2017-Oct-16 23:59N 40°25' W 073°60'0 0.0
2017-Oct-16 23:29N 40°25' W 073°60'2 3.3
2017-Oct-16 22:49N 40°27' W 074°01'1032.5
2017-Oct-16 22:30N 40°37' W 074°03'917.4
2017-Oct-16 22:00N 40°45' W 073°58'815.7
2017-Oct-16 21:31N 40°38' W 074°03'1224.0
2017-Oct-16 21:00N 40°25' W 074°01'1020.7
2017-Oct-16 20:30N 40°35' W 074°03'714.2
2017-Oct-16 20:01N 40°42' W 074°00'1 2.0
2017-Oct-16 19:31N 40°42' W 074°01'1716.1
2017-Oct-16 18:27N 40°25' W 073°60'816.8
2017-Oct-16 18:00N 40°32' W 074°02'1121.4
2017-Oct-16 17:31N 40°42' W 073°60'1 2.2
2017-Oct-16 17:00N 40°43' W 073°58'1428.5
2017-Oct-16 16:30N 40°29' W 074°02'4 7.6
2017-Oct-16 16:00N 40°25' W 074°00'1632.6
2017-Oct-16 15:31N 40°41' W 074°02'4 7.4
2017-Oct-16 15:01N 40°43' W 073°58'1817.9
2017-Oct-16 13:59N 40°25' W 074°02'6 8.7
2017-Oct-16 13:19N 40°31' W 074°02'1031.0
2017-Oct-16 13:01N 40°41' W 074°02'510.1
2017-Oct-16 12:30N 40°45' W 073°58'612.5
2017-Oct-16 12:01N 40°39' W 074°02'1426.1
2017-Oct-16 11:29N 40°25' W 074°02'2 0.2
2017-Oct-16 01:30N 40°25' W 073°60'1224.2
2017-Oct-16 01:01N 40°36' W 074°03'918.2
2017-Oct-16 00:30N 40°45' W 073°58'815.6
2017-Oct-16 00:00N 40°38' W 074°03'13 9.2
2017-Oct-15 22:34N 40°25' W 073°60'0 0.4
2017-Oct-15 22:30N 40°25' W 073°60'1428.9
2017-Oct-15 22:01N 40°39' W 074°02'4 8.8
2017-Oct-15 21:31N 40°42' W 073°59'611.5
2017-Oct-15 21:01N 40°37' W 074°03'1316.4
2017-Oct-15 20:14N 40°25' W 073°60'727.1
2017-Oct-15 19:57N 40°32' W 074°02'1022.7
2017-Oct-15 19:30N 40°42' W 074°00'3 5.7
2017-Oct-15 19:00N 40°44' W 073°58'1224.7
2017-Oct-15 18:30N 40°32' W 074°02'1 1.3
2017-Oct-15 17:49N 40°31' W 074°02'927.4
2017-Oct-15 17:31N 40°40' W 074°03'611.0
2017-Oct-15 17:00N 40°44' W 073°58'715.0
2017-Oct-15 16:31N 40°38' W 074°03'1315.4
2017-Oct-15 15:38N 40°25' W 073°60'322.1
2017-Oct-15 15:30N 40°28' W 074°01'1429.7
2017-Oct-15 15:01N 40°42' W 074°01'4 4.2
2017-Oct-15 14:00N 40°38' W 074°03'14 0.9
2017-Oct-14 22:37N 40°25' W 073°60'413.1
2017-Oct-14 22:19N 40°28' W 074°01'1033.8
2017-Oct-14 22:01N 40°39' W 074°02'4 8.5
2017-Oct-14 21:30N 40°42' W 073°59'612.4
2017-Oct-14 21:00N 40°37' W 074°03'1216.6
2017-Oct-14 20:15N 40°25' W 073°60'723.8
2017-Oct-14 19:58N 40°31' W 074°02'1123.7
2017-Oct-14 19:30N 40°42' W 074°00'3 5.1
2017-Oct-14 19:00N 40°44' W 073°58'1224.4
2017-Oct-14 18:30N 40°32' W 074°02'612.3
2017-Oct-14 17:58N 40°26' W 074°01'1431.4
2017-Oct-14 17:30N 40°40' W 074°03'5 9.7
2017-Oct-14 17:00N 40°43' W 073°58'816.4
2017-Oct-14 16:30N 40°36' W 074°03'1010.8
2017-Oct-14 15:35N 40°26' W 074°01'327.2
2017-Oct-14 15:29N 40°29' W 074°02'1326.3
2017-Oct-14 15:00N 40°41' W 074°02'2 3.0
2017-Oct-14 14:30N 40°42' W 073°60'613.2
2017-Oct-14 14:01N 40°36' W 074°02'11 0.9
2017-Oct-14 02:39N 40°25' W 074°01'619.9
2017-Oct-14 02:20N 40°32' W 074°02'1130.5
2017-Oct-14 02:00N 40°42' W 074°00'3 6.0
2017-Oct-14 01:30N 40°45' W 073°58'815.3
2017-Oct-14 01:00N 40°38' W 074°03'1310.4
2017-Oct-13 23:43N 40°25' W 073°60'0 0.0
2017-Oct-13 23:23N 40°25' W 073°60'3 4.7
2017-Oct-13 22:46N 40°27' W 074°01'932.0
2017-Oct-13 22:30N 40°36' W 074°03'918.7
2017-Oct-13 22:00N 40°45' W 073°58'1020.1
2017-Oct-13 21:30N 40°35' W 074°03'1118.0
2017-Oct-13 20:54N 40°25' W 073°60'1229.6
2017-Oct-13 20:29N 40°37' W 074°03'612.2
2017-Oct-13 20:00N 40°42' W 074°00'1 3.0
2017-Oct-13 19:30N 40°43' W 073°58'1528.6
2017-Oct-13 18:59N 40°28' W 074°02'  
2017-Oct-10 23:59N 40°25' W 073°60'0 0.0
2017-Oct-10 23:30N 40°25' W 073°60'0 0.3
2017-Oct-10 22:59N 40°25' W 073°60'1430.0
2017-Oct-10 22:31N 40°39' W 074°02'612.4
2017-Oct-10 22:00N 40°45' W 073°58'918.8
2017-Oct-10 21:31N 40°36' W 074°03'3 3.6
2017-Oct-10 20:36N 40°33' W 074°02'334.4
2017-Oct-10 20:30N 40°36' W 074°03'713.6
2017-Oct-10 20:01N 40°42' W 073°60'5 9.4
2017-Oct-10 19:30N 40°38' W 074°03'1426.2
2017-Oct-10 18:59N 40°25' W 073°60'0 0.0
2017-Oct-10 18:29N 40°25' W 073°60'917.6
2017-Oct-10 18:00N 40°33' W 074°02'918.9
2017-Oct-10 17:30N 40°42' W 074°00'1 1.9
2017-Oct-10 17:00N 40°42' W 073°59'1529.3
2017-Oct-10 16:30N 40°28' W 074°01'4 5.6
2017-Oct-10 15:50N 40°32' W 074°02'1030.0
2017-Oct-10 15:31N 40°41' W 074°01'4 7.6
2017-Oct-10 15:00N 40°44' W 073°58'10 5.8
2017-Oct-10 13:18N 40°35' W 074°03'725.6
2017-Oct-10 13:00N 40°42' W 074°00'3 5.6
2017-Oct-10 12:30N 40°45' W 073°58'511.1
2017-Oct-10 12:00N 40°40' W 074°01'1528.5
2017-Oct-10 11:30N 40°25' W 074°02'  
Track history (hours):
 
Tides and Currents Weather Stations Pressure Air Temp Water Temp Dewpoint Dewpoint Depression Visibility Wind Speed Wind Dir Waves Ship Positions

Seastreak New Jersey

Owner: Seastreak llc, Atlantic Highlands, NJ. More information available from US FCC via Universal Licensing System and Coast Guard Vessel Documentation Center.

Last reported at 2017-Oct-20 02:47 UTC. Time now 2017-Oct-20 07:23 UTC.
Position N 40°25' W 073°60'.

Length 44 m.

Type: High speed craft. MMSI: 367347640.

Date/timePositionNaut miles runAvg speedWind from/ knotsBaromVisibWave heightAir tempDewpointWater temp
2017-Oct-20 02:47N 40°25' W 073°60'818.2
2017-Oct-20 02:22N 40°32' W 074°02'1028.5
2017-Oct-20 02:00N 40°42' W 074°00'3 5.7
2017-Oct-20 01:30N 40°45' W 073°58'714.8
2017-Oct-20 01:01N 40°38' W 074°03'1416.5
2017-Oct-20 00:10N 40°25' W 073°60'0 0.0
2017-Oct-19 23:52N 40°25' W 073°60'0 0.0
2017-Oct-19 23:26N 40°25' W 073°60'0 0.4
2017-Oct-19 23:00N 40°25' W 073°60'1223.1
2017-Oct-19 22:30N 40°36' W 074°03'918.5
2017-Oct-19 22:00N 40°45' W 073°58'917.2
2017-Oct-19 21:31N 40°37' W 074°03'1122.9
2017-Oct-19 21:00N 40°25' W 074°01'1020.0
2017-Oct-19 20:31N 40°35' W 074°03'714.3
2017-Oct-19 20:01N 40°42' W 074°00'0 0.9
2017-Oct-19 19:30N 40°42' W 074°00'1528.7
2017-Oct-19 18:59N 40°27' W 074°01'3 5.1
2017-Oct-19 18:30N 40°25' W 073°60'815.7
2017-Oct-19 18:00N 40°32' W 074°02'1021.1
2017-Oct-19 17:30N 40°42' W 073°59'0 1.0
2017-Oct-19 17:01N 40°43' W 073°59'1428.3
2017-Oct-19 16:30N 40°28' W 074°02'4 6.1
2017-Oct-19 15:48N 40°32' W 074°02'829.5
2017-Oct-19 15:31N 40°41' W 074°02'4 8.0
2017-Oct-19 15:00N 40°44' W 073°58'611.0
2017-Oct-19 14:31N 40°39' W 074°02'1421.3
2017-Oct-19 13:52N 40°25' W 074°02'511.8
2017-Oct-19 13:26N 40°30' W 074°02'1228.2
2017-Oct-19 13:01N 40°42' W 074°00'3 5.5
2017-Oct-19 12:30N 40°45' W 073°58'5 9.9
2017-Oct-19 12:00N 40°40' W 074°01'1530.2
2017-Oct-19 11:30N 40°25' W 074°02'2 3.2
2017-Oct-19 10:56N 40°25' W 073°60'0 0.0
2017-Oct-19 10:30N 40°25' W 073°60'0 0.0
2017-Oct-19 02:54N 40°25' W 073°60'917.8
2017-Oct-19 02:25N 40°33' W 074°02'922.6
2017-Oct-19 02:01N 40°42' W 074°00'3 5.7
2017-Oct-19 01:30N 40°45' W 073°58'918.3
2017-Oct-19 01:01N 40°36' W 074°03'12 7.5
2017-Oct-18 23:24N 40°25' W 073°60'0 0.1
2017-Oct-18 22:57N 40°25' W 073°60'1328.7
2017-Oct-18 22:30N 40°37' W 074°03'816.1
2017-Oct-18 22:00N 40°45' W 073°58'816.8
2017-Oct-18 21:30N 40°37' W 074°03'1224.0
2017-Oct-18 21:00N 40°25' W 074°00'1020.8
2017-Oct-18 20:30N 40°36' W 074°03'715.0
2017-Oct-18 20:01N 40°42' W 073°59'2 3.9
2017-Oct-18 19:31N 40°41' W 074°01'1632.5
2017-Oct-18 19:00N 40°25' W 073°60'0 0.4
2017-Oct-18 18:30N 40°25' W 073°60'815.1
2017-Oct-18 17:59N 40°32' W 074°02'1021.2
2017-Oct-18 17:30N 40°42' W 074°00'0 0.8
2017-Oct-18 17:01N 40°42' W 074°00'1326.0
2017-Oct-18 16:30N 40°28' W 074°02'4 7.9
2017-Oct-18 16:00N 40°25' W 074°00'1632.0
2017-Oct-18 15:31N 40°40' W 074°02'5 9.8
2017-Oct-18 15:00N 40°44' W 073°58'1913.1
2017-Oct-18 13:31N 40°25' W 074°02'724.3
2017-Oct-18 13:14N 40°32' W 074°02'731.7
2017-Oct-18 13:00N 40°39' W 074°03'713.0
2017-Oct-18 12:30N 40°45' W 073°58'510.2
2017-Oct-18 12:01N 40°40' W 074°01'1523.1
2017-Oct-18 11:21N 40°25' W 074°02'2 0.2
2017-Oct-18 02:54N 40°25' W 073°60'613.1
2017-Oct-18 02:25N 40°31' W 074°02'1127.3
2017-Oct-18 02:00N 40°42' W 074°00'3 5.9
2017-Oct-18 01:30N 40°45' W 073°58'714.5
2017-Oct-18 01:01N 40°38' W 074°03'1417.8
2017-Oct-18 00:14N 40°25' W 073°60'0 0.0
2017-Oct-18 00:00N 40°25' W 073°60'0 0.0
2017-Oct-17 23:30N 40°25' W 073°60'0 0.1
2017-Oct-17 22:58N 40°25' W 073°60'1327.2
2017-Oct-17 22:30N 40°37' W 074°03'816.7
2017-Oct-17 22:00N 40°45' W 073°58'715.0
2017-Oct-17 21:31N 40°38' W 074°03'1325.3
2017-Oct-17 21:00N 40°25' W 074°01'1020.7
2017-Oct-17 20:30N 40°36' W 074°03'713.6
2017-Oct-17 20:01N 40°42' W 074°00'1 1.1
2017-Oct-17 19:31N 40°42' W 074°00'1631.5
2017-Oct-17 19:00N 40°26' W 074°00'0 0.5
2017-Oct-17 18:20N 40°25' W 074°01'719.9
2017-Oct-17 17:59N 40°32' W 074°02'1021.4
2017-Oct-17 17:31N 40°42' W 074°00'0 0.3
2017-Oct-17 17:01N 40°42' W 073°60'1427.9
2017-Oct-17 16:30N 40°28' W 074°01'3 5.8
2017-Oct-17 15:58N 40°25' W 074°00'1532.1
2017-Oct-17 15:31N 40°40' W 074°03'4 8.6
2017-Oct-17 15:00N 40°43' W 073°58'713.3
2017-Oct-17 14:30N 40°37' W 074°03'5 3.9
2017-Oct-17 13:17N 40°32' W 074°02'931.3
2017-Oct-17 13:01N 40°41' W 074°01'4 8.1
2017-Oct-17 12:30N 40°45' W 073°58'612.4
2017-Oct-17 12:00N 40°40' W 074°03'1415.3
2017-Oct-17 11:04N 40°25' W 074°01'1 3.3
2017-Oct-17 10:44N 40°25' W 073°60'0 0.0
2017-Oct-17 02:55N 40°25' W 073°60'712.7
2017-Oct-17 02:20N 40°32' W 074°02'1032.2
2017-Oct-17 02:00N 40°42' W 074°00'3 5.9
2017-Oct-17 01:31N 40°45' W 073°58'815.9
2017-Oct-17 01:00N 40°37' W 074°03'1313.2
2017-Oct-17 00:01N 40°25' W 073°60'0 0.0
2017-Oct-16 23:59N 40°25' W 073°60'0 0.0
2017-Oct-16 23:29N 40°25' W 073°60'2 3.3
2017-Oct-16 22:49N 40°27' W 074°01'1032.5
2017-Oct-16 22:30N 40°37' W 074°03'917.4
2017-Oct-16 22:00N 40°45' W 073°58'815.7
2017-Oct-16 21:31N 40°38' W 074°03'1224.0
2017-Oct-16 21:00N 40°25' W 074°01'1020.7
2017-Oct-16 20:30N 40°35' W 074°03'714.2
2017-Oct-16 20:01N 40°42' W 074°00'1 2.0
2017-Oct-16 19:31N 40°42' W 074°01'1716.1
2017-Oct-16 18:27N 40°25' W 073°60'816.8
2017-Oct-16 18:00N 40°32' W 074°02'1121.4
2017-Oct-16 17:31N 40°42' W 073°60'1 2.2
2017-Oct-16 17:00N 40°43' W 073°58'1428.5
2017-Oct-16 16:30N 40°29' W 074°02'4 7.6
2017-Oct-16 16:00N 40°25' W 074°00'1632.6
2017-Oct-16 15:31N 40°41' W 074°02'4 7.4
2017-Oct-16 15:01N 40°43' W 073°58'1817.9
2017-Oct-16 13:59N 40°25' W 074°02'6 8.7
2017-Oct-16 13:19N 40°31' W 074°02'1031.0
2017-Oct-16 13:01N 40°41' W 074°02'510.1
2017-Oct-16 12:30N 40°45' W 073°58'612.5
2017-Oct-16 12:01N 40°39' W 074°02'1426.1
2017-Oct-16 11:29N 40°25' W 074°02'2 0.2
2017-Oct-16 01:30N 40°25' W 073°60'1224.2
2017-Oct-16 01:01N 40°36' W 074°03'918.2
2017-Oct-16 00:30N 40°45' W 073°58'815.6
2017-Oct-16 00:00N 40°38' W 074°03'13 9.2
2017-Oct-15 22:34N 40°25' W 073°60'0 0.4
2017-Oct-15 22:30N 40°25' W 073°60'1428.9
2017-Oct-15 22:01N 40°39' W 074°02'4 8.8
2017-Oct-15 21:31N 40°42' W 073°59'611.5
2017-Oct-15 21:01N 40°37' W 074°03'1316.4
2017-Oct-15 20:14N 40°25' W 073°60'727.1
2017-Oct-15 19:57N 40°32' W 074°02'1022.7
2017-Oct-15 19:30N 40°42' W 074°00'3 5.7
2017-Oct-15 19:00N 40°44' W 073°58'1224.7
2017-Oct-15 18:30N 40°32' W 074°02'1 1.3
2017-Oct-15 17:49N 40°31' W 074°02'927.4
2017-Oct-15 17:31N 40°40' W 074°03'611.0
2017-Oct-15 17:00N 40°44' W 073°58'715.0
2017-Oct-15 16:31N 40°38' W 074°03'1315.4
2017-Oct-15 15:38N 40°25' W 073°60'322.1
2017-Oct-15 15:30N 40°28' W 074°01'1429.7
2017-Oct-15 15:01N 40°42' W 074°01'4 4.2
2017-Oct-15 14:00N 40°38' W 074°03'14 0.9
2017-Oct-14 22:37N 40°25' W 073°60'413.1
2017-Oct-14 22:19N 40°28' W 074°01'1033.8
2017-Oct-14 22:01N 40°39' W 074°02'4 8.5
2017-Oct-14 21:30N 40°42' W 073°59'612.4
2017-Oct-14 21:00N 40°37' W 074°03'1216.6
2017-Oct-14 20:15N 40°25' W 073°60'723.8
2017-Oct-14 19:58N 40°31' W 074°02'1123.7
2017-Oct-14 19:30N 40°42' W 074°00'3 5.1
2017-Oct-14 19:00N 40°44' W 073°58'1224.4
2017-Oct-14 18:30N 40°32' W 074°02'612.3
2017-Oct-14 17:58N 40°26' W 074°01'1431.4
2017-Oct-14 17:30N 40°40' W 074°03'5 9.7
2017-Oct-14 17:00N 40°43' W 073°58'816.4
2017-Oct-14 16:30N 40°36' W 074°03'1010.8
2017-Oct-14 15:35N 40°26' W 074°01'327.2
2017-Oct-14 15:29N 40°29' W 074°02'1326.3
2017-Oct-14 15:00N 40°41' W 074°02'2 3.0
2017-Oct-14 14:30N 40°42' W 073°60'613.2
2017-Oct-14 14:01N 40°36' W 074°02'11 0.9
2017-Oct-14 02:39N 40°25' W 074°01'619.9
2017-Oct-14 02:20N 40°32' W 074°02'1130.5
2017-Oct-14 02:00N 40°42' W 074°00'3 6.0
2017-Oct-14 01:30N 40°45' W 073°58'815.3
2017-Oct-14 01:00N 40°38' W 074°03'1310.4
2017-Oct-13 23:43N 40°25' W 073°60'0 0.0
2017-Oct-13 23:23N 40°25' W 073°60'3 4.7
2017-Oct-13 22:46N 40°27' W 074°01'932.0
2017-Oct-13 22:30N 40°36' W 074°03'918.7
2017-Oct-13 22:00N 40°45' W 073°58'1020.1
2017-Oct-13 21:30N 40°35' W 074°03'1118.0
2017-Oct-13 20:54N 40°25' W 073°60'1229.6
2017-Oct-13 20:29N 40°37' W 074°03'612.2
2017-Oct-13 20:00N 40°42' W 074°00'1 3.0
2017-Oct-13 19:30N 40°43' W 073°58'1528.6
2017-Oct-13 18:59N 40°28' W 074°02'  
2017-Oct-10 23:59N 40°25' W 073°60'0 0.0
2017-Oct-10 23:30N 40°25' W 073°60'0 0.3
2017-Oct-10 22:59N 40°25' W 073°60'1430.0
2017-Oct-10 22:31N 40°39' W 074°02'612.4
2017-Oct-10 22:00N 40°45' W 073°58'918.8
2017-Oct-10 21:31N 40°36' W 074°03'3 3.6
2017-Oct-10 20:36N 40°33' W 074°02'334.4
2017-Oct-10 20:30N 40°36' W 074°03'713.6
2017-Oct-10 20:01N 40°42' W 073°60'5 9.4
2017-Oct-10 19:30N 40°38' W 074°03'1426.2
2017-Oct-10 18:59N 40°25' W 073°60'0 0.0
2017-Oct-10 18:29N 40°25' W 073°60'917.6
2017-Oct-10 18:00N 40°33' W 074°02'918.9
2017-Oct-10 17:30N 40°42' W 074°00'1 1.9
2017-Oct-10 17:00N 40°42' W 073°59'1529.3
2017-Oct-10 16:30N 40°28' W 074°01'4 5.6
2017-Oct-10 15:50N 40°32' W 074°02'1030.0
2017-Oct-10 15:31N 40°41' W 074°01'4 7.6
2017-Oct-10 15:00N 40°44' W 073°58'10 5.8
2017-Oct-10 13:18N 40°35' W 074°03'725.6
2017-Oct-10 13:00N 40°42' W 074°00'3 5.6
2017-Oct-10 12:30N 40°45' W 073°58'511.1
2017-Oct-10 12:00N 40°40' W 074°01'1528.5
2017-Oct-10 11:30N 40°25' W 074°02'  

Dump ship's entire track history